sensor_id;sensor_type;location;lat;lon;timestamp;P1;durP1;ratioP1;P2;durP2;ratioP2
19521;SDS011;9905;52.126;5.596;2023-06-10T00:00:06;4.93;;;4.63;;
19521;SDS011;9905;52.126;5.596;2023-06-10T00:02:33;4.75;;;4.43;;
19521;SDS011;9905;52.126;5.596;2023-06-10T00:05:00;4.60;;;4.30;;
19521;SDS011;9905;52.126;5.596;2023-06-10T00:07:27;4.97;;;4.63;;
19521;SDS011;9905;52.126;5.596;2023-06-10T00:09:55;5.75;;;4.25;;
19521;SDS011;9905;52.126;5.596;2023-06-10T00:12:22;5.03;;;4.63;;
19521;SDS011;9905;52.126;5.596;2023-06-10T00:14:49;4.80;;;4.40;;
19521;SDS011;9905;52.126;5.596;2023-06-10T00:17:16;4.80;;;4.40;;
19521;SDS011;9905;52.126;5.596;2023-06-10T00:19:43;4.53;;;4.22;;
19521;SDS011;9905;52.126;5.596;2023-06-10T00:22:12;4.38;;;3.97;;
19521;SDS011;9905;52.126;5.596;2023-06-10T00:24:39;5.45;;;4.45;;
19521;SDS011;9905;52.126;5.596;2023-06-10T00:27:08;5.88;;;4.35;;
19521;SDS011;9905;52.126;5.596;2023-06-10T00:29:35;4.90;;;4.50;;
19521;SDS011;9905;52.126;5.596;2023-06-10T00:32:02;4.75;;;4.28;;
19521;SDS011;9905;52.126;5.596;2023-06-10T00:34:29;5.13;;;4.68;;
19521;SDS011;9905;52.126;5.596;2023-06-10T00:36:56;4.60;;;4.18;;
19521;SDS011;9905;52.126;5.596;2023-06-10T00:39:23;4.88;;;4.38;;
19521;SDS011;9905;52.126;5.596;2023-06-10T00:41:49;4.47;;;4.07;;
19521;SDS011;9905;52.126;5.596;2023-06-10T00:44:17;4.45;;;4.15;;
19521;SDS011;9905;52.126;5.596;2023-06-10T00:46:44;4.95;;;4.55;;
19521;SDS011;9905;52.126;5.596;2023-06-10T00:49:11;4.53;;;4.22;;
19521;SDS011;9905;52.126;5.596;2023-06-10T00:51:38;5.63;;;4.35;;
19521;SDS011;9905;52.126;5.596;2023-06-10T00:54:05;4.20;;;3.92;;
19521;SDS011;9905;52.126;5.596;2023-06-10T00:56:33;5.07;;;4.30;;
19521;SDS011;9905;52.126;5.596;2023-06-10T00:59:01;4.32;;;4.00;;
19521;SDS011;9905;52.126;5.596;2023-06-10T01:01:29;4.30;;;3.90;;
19521;SDS011;9905;52.126;5.596;2023-06-10T01:03:57;4.30;;;4.00;;
19521;SDS011;9905;52.126;5.596;2023-06-10T01:06:25;5.60;;;4.10;;
19521;SDS011;9905;52.126;5.596;2023-06-10T01:09:02;4.82;;;4.43;;
19521;SDS011;9905;52.126;5.596;2023-06-10T01:11:36;5.32;;;4.22;;
19521;SDS011;9905;52.126;5.596;2023-06-10T01:14:07;5.05;;;4.30;;
19521;SDS011;9905;52.126;5.596;2023-06-10T01:16:35;5.68;;;4.18;;
19521;SDS011;9905;52.126;5.596;2023-06-10T01:19:05;5.57;;;4.68;;
19521;SDS011;9905;52.126;5.596;2023-06-10T01:21:34;5.00;;;4.60;;
19521;SDS011;9905;52.126;5.596;2023-06-10T01:24:01;5.07;;;4.68;;
19521;SDS011;9905;52.126;5.596;2023-06-10T01:26:28;4.90;;;4.40;;
19521;SDS011;9905;52.126;5.596;2023-06-10T01:28:58;7.47;;;4.60;;
19521;SDS011;9905;52.126;5.596;2023-06-10T01:31:35;5.63;;;4.55;;
19521;SDS011;9905;52.126;5.596;2023-06-10T01:34:08;8.20;;;4.45;;
19521;SDS011;9905;52.126;5.596;2023-06-10T01:36:38;5.15;;;4.50;;
19521;SDS011;9905;52.126;5.596;2023-06-10T01:39:07;4.78;;;4.13;;
19521;SDS011;9905;52.126;5.596;2023-06-10T01:41:36;5.28;;;4.80;;
19521;SDS011;9905;52.126;5.596;2023-06-10T01:44:04;7.72;;;4.65;;
19521;SDS011;9905;52.126;5.596;2023-06-10T01:46:31;4.70;;;4.10;;
19521;SDS011;9905;52.126;5.596;2023-06-10T01:48:58;4.57;;;4.20;;
19521;SDS011;9905;52.126;5.596;2023-06-10T01:51:24;4.80;;;4.40;;
19521;SDS011;9905;52.126;5.596;2023-06-10T01:53:52;4.80;;;4.40;;
19521;SDS011;9905;52.126;5.596;2023-06-10T01:56:19;5.38;;;4.30;;
19521;SDS011;9905;52.126;5.596;2023-06-10T01:58:46;7.93;;;4.65;;
19521;SDS011;9905;52.126;5.596;2023-06-10T02:01:13;5.20;;;4.80;;
19521;SDS011;9905;52.126;5.596;2023-06-10T02:03:40;7.47;;;4.13;;
19521;SDS011;9905;52.126;5.596;2023-06-10T02:06:07;4.47;;;4.18;;
19521;SDS011;9905;52.126;5.596;2023-06-10T02:08:34;4.40;;;4.10;;
19521;SDS011;9905;52.126;5.596;2023-06-10T02:11:02;7.13;;;4.88;;
19521;SDS011;9905;52.126;5.596;2023-06-10T02:13:28;4.50;;;4.10;;
19521;SDS011;9905;52.126;5.596;2023-06-10T02:15:55;5.32;;;4.82;;
19521;SDS011;9905;52.126;5.596;2023-06-10T02:18:22;4.93;;;4.53;;
19521;SDS011;9905;52.126;5.596;2023-06-10T02:20:49;4.28;;;4.05;;
19521;SDS011;9905;52.126;5.596;2023-06-10T02:23:15;5.20;;;4.57;;
19521;SDS011;9905;52.126;5.596;2023-06-10T02:25:42;5.30;;;4.90;;
19521;SDS011;9905;52.126;5.596;2023-06-10T02:28:10;4.65;;;4.25;;
19521;SDS011;9905;52.126;5.596;2023-06-10T02:30:38;4.88;;;4.47;;
19521;SDS011;9905;52.126;5.596;2023-06-10T02:33:06;7.05;;;4.93;;
19521;SDS011;9905;52.126;5.596;2023-06-10T02:35:34;4.90;;;4.40;;
19521;SDS011;9905;52.126;5.596;2023-06-10T02:38:01;5.07;;;4.40;;
19521;SDS011;9905;52.126;5.596;2023-06-10T02:40:29;6.55;;;5.05;;
19521;SDS011;9905;52.126;5.596;2023-06-10T02:42:55;4.80;;;4.40;;
19521;SDS011;9905;52.126;5.596;2023-06-10T02:45:24;5.25;;;4.85;;
19521;SDS011;9905;52.126;5.596;2023-06-10T02:47:51;5.25;;;4.35;;
19521;SDS011;9905;52.126;5.596;2023-06-10T02:50:18;5.13;;;4.72;;
19521;SDS011;9905;52.126;5.596;2023-06-10T02:52:45;4.65;;;4.25;;
19521;SDS011;9905;52.126;5.596;2023-06-10T02:55:11;6.35;;;5.05;;
19521;SDS011;9905;52.126;5.596;2023-06-10T02:57:38;4.95;;;4.57;;
19521;SDS011;9905;52.126;5.596;2023-06-10T03:00:06;5.43;;;4.60;;
19521;SDS011;9905;52.126;5.596;2023-06-10T03:02:37;5.47;;;5.07;;
19521;SDS011;9905;52.126;5.596;2023-06-10T03:05:04;5.20;;;4.70;;
19521;SDS011;9905;52.126;5.596;2023-06-10T03:07:34;4.95;;;4.57;;
19521;SDS011;9905;52.126;5.596;2023-06-10T03:10:01;5.05;;;4.55;;
19521;SDS011;9905;52.126;5.596;2023-06-10T03:12:28;5.28;;;4.88;;
19521;SDS011;9905;52.126;5.596;2023-06-10T03:14:56;5.20;;;4.28;;
19521;SDS011;9905;52.126;5.596;2023-06-10T03:17:23;4.90;;;4.50;;
19521;SDS011;9905;52.126;5.596;2023-06-10T03:19:51;4.85;;;4.50;;
19521;SDS011;9905;52.126;5.596;2023-06-10T03:22:18;5.53;;;4.50;;
19521;SDS011;9905;52.126;5.596;2023-06-10T03:24:45;7.43;;;4.93;;
19521;SDS011;9905;52.126;5.596;2023-06-10T03:27:15;5.85;;;4.97;;
19521;SDS011;9905;52.126;5.596;2023-06-10T03:29:42;5.32;;;4.88;;
19521;SDS011;9905;52.126;5.596;2023-06-10T03:32:09;4.63;;;4.22;;
19521;SDS011;9905;52.126;5.596;2023-06-10T03:34:36;4.95;;;4.55;;
19521;SDS011;9905;52.126;5.596;2023-06-10T03:37:05;6.57;;;5.43;;
19521;SDS011;9905;52.126;5.596;2023-06-10T03:39:32;7.13;;;4.85;;
19521;SDS011;9905;52.126;5.596;2023-06-10T03:41:59;5.50;;;4.95;;
19521;SDS011;9905;52.126;5.596;2023-06-10T03:44:25;7.93;;;4.82;;
19521;SDS011;9905;52.126;5.596;2023-06-10T03:46:52;5.07;;;4.68;;
19521;SDS011;9905;52.126;5.596;2023-06-10T03:49:19;5.75;;;4.70;;
19521;SDS011;9905;52.126;5.596;2023-06-10T03:51:51;5.43;;;4.80;;
19521;SDS011;9905;52.126;5.596;2023-06-10T03:54:19;8.63;;;4.85;;
19521;SDS011;9905;52.126;5.596;2023-06-10T03:56:46;4.88;;;4.53;;
19521;SDS011;9905;52.126;5.596;2023-06-10T03:59:13;5.35;;;4.95;;
19521;SDS011;9905;52.126;5.596;2023-06-10T04:01:40;8.43;;;4.88;;
19521;SDS011;9905;52.126;5.596;2023-06-10T04:04:08;5.78;;;4.63;;
19521;SDS011;9905;52.126;5.596;2023-06-10T04:06:35;7.18;;;4.75;;
19521;SDS011;9905;52.126;5.596;2023-06-10T04:09:02;5.53;;;4.88;;
19521;SDS011;9905;52.126;5.596;2023-06-10T04:11:31;5.25;;;4.80;;
19521;SDS011;9905;52.126;5.596;2023-06-10T04:13:58;5.85;;;5.13;;
19521;SDS011;9905;52.126;5.596;2023-06-10T04:16:24;8.30;;;5.28;;
19521;SDS011;9905;52.126;5.596;2023-06-10T04:18:51;10.23;;;5.65;;
19521;SDS011;9905;52.126;5.596;2023-06-10T04:21:18;5.50;;;4.80;;
19521;SDS011;9905;52.126;5.596;2023-06-10T04:23:45;5.65;;;5.15;;
19521;SDS011;9905;52.126;5.596;2023-06-10T04:26:11;5.35;;;4.88;;
19521;SDS011;9905;52.126;5.596;2023-06-10T04:28:39;7.53;;;5.88;;
19521;SDS011;9905;52.126;5.596;2023-06-10T04:31:08;5.15;;;4.60;;
19521;SDS011;9905;52.126;5.596;2023-06-10T04:33:35;5.03;;;4.60;;
19521;SDS011;9905;52.126;5.596;2023-06-10T04:36:02;9.05;;;5.53;;
19521;SDS011;9905;52.126;5.596;2023-06-10T04:38:31;5.32;;;5.03;;
19521;SDS011;9905;52.126;5.596;2023-06-10T04:40:58;5.95;;;4.90;;
19521;SDS011;9905;52.126;5.596;2023-06-10T04:43:25;5.40;;;4.90;;
19521;SDS011;9905;52.126;5.596;2023-06-10T04:45:54;6.43;;;4.65;;
19521;SDS011;9905;52.126;5.596;2023-06-10T04:48:21;5.10;;;4.68;;
19521;SDS011;9905;52.126;5.596;2023-06-10T04:50:49;4.75;;;4.30;;
19521;SDS011;9905;52.126;5.596;2023-06-10T04:53:16;4.82;;;4.43;;
19521;SDS011;9905;52.126;5.596;2023-06-10T04:55:42;5.70;;;5.10;;
19521;SDS011;9905;52.126;5.596;2023-06-10T04:58:10;8.32;;;4.80;;
19521;SDS011;9905;52.126;5.596;2023-06-10T05:00:37;5.88;;;5.28;;
19521;SDS011;9905;52.126;5.596;2023-06-10T05:03:05;7.57;;;5.03;;
19521;SDS011;9905;52.126;5.596;2023-06-10T05:05:31;5.88;;;5.35;;
19521;SDS011;9905;52.126;5.596;2023-06-10T05:07:58;5.50;;;5.00;;
19521;SDS011;9905;52.126;5.596;2023-06-10T05:10:25;5.35;;;4.95;;
19521;SDS011;9905;52.126;5.596;2023-06-10T05:12:52;5.68;;;5.28;;
19521;SDS011;9905;52.126;5.596;2023-06-10T05:15:18;5.05;;;4.55;;
19521;SDS011;9905;52.126;5.596;2023-06-10T05:17:45;5.07;;;4.65;;
19521;SDS011;9905;52.126;5.596;2023-06-10T05:20:13;5.68;;;5.13;;
19521;SDS011;9905;52.126;5.596;2023-06-10T05:22:40;5.38;;;4.88;;
19521;SDS011;9905;52.126;5.596;2023-06-10T05:25:07;5.05;;;4.65;;
19521;SDS011;9905;52.126;5.596;2023-06-10T05:27:34;6.57;;;5.50;;
19521;SDS011;9905;52.126;5.596;2023-06-10T05:30:02;5.93;;;5.35;;
19521;SDS011;9905;52.126;5.596;2023-06-10T05:32:29;6.22;;;5.55;;
19521;SDS011;9905;52.126;5.596;2023-06-10T05:34:56;5.88;;;5.15;;
19521;SDS011;9905;52.126;5.596;2023-06-10T05:37:26;6.75;;;5.20;;
19521;SDS011;9905;52.126;5.596;2023-06-10T05:39:53;5.35;;;4.93;;
19521;SDS011;9905;52.126;5.596;2023-06-10T05:42:19;5.50;;;5.00;;
19521;SDS011;9905;52.126;5.596;2023-06-10T05:44:46;5.95;;;5.20;;
19521;SDS011;9905;52.126;5.596;2023-06-10T05:47:13;5.35;;;4.80;;
19521;SDS011;9905;52.126;5.596;2023-06-10T05:49:39;6.53;;;5.38;;
19521;SDS011;9905;52.126;5.596;2023-06-10T05:52:06;5.32;;;4.82;;
19521;SDS011;9905;52.126;5.596;2023-06-10T05:54:34;7.03;;;5.80;;
19521;SDS011;9905;52.126;5.596;2023-06-10T05:57:01;5.72;;;5.30;;
19521;SDS011;9905;52.126;5.596;2023-06-10T05:59:30;5.97;;;5.40;;
19521;SDS011;9905;52.126;5.596;2023-06-10T06:01:58;5.80;;;5.05;;
19521;SDS011;9905;52.126;5.596;2023-06-10T06:04:24;6.00;;;5.50;;
19521;SDS011;9905;52.126;5.596;2023-06-10T06:06:51;5.85;;;5.20;;
19521;SDS011;9905;52.126;5.596;2023-06-10T06:09:18;7.13;;;5.50;;
19521;SDS011;9905;52.126;5.596;2023-06-10T06:11:46;5.70;;;5.13;;
19521;SDS011;9905;52.126;5.596;2023-06-10T06:14:12;5.00;;;4.68;;
19521;SDS011;9905;52.126;5.596;2023-06-10T06:16:39;5.28;;;4.78;;
19521;SDS011;9905;52.126;5.596;2023-06-10T06:19:06;6.43;;;5.32;;
19521;SDS011;9905;52.126;5.596;2023-06-10T06:21:34;6.53;;;4.70;;
19521;SDS011;9905;52.126;5.596;2023-06-10T06:24:01;7.32;;;5.22;;
19521;SDS011;9905;52.126;5.596;2023-06-10T06:26:28;6.40;;;5.03;;
19521;SDS011;9905;52.126;5.596;2023-06-10T06:28:56;5.45;;;4.88;;
19521;SDS011;9905;52.126;5.596;2023-06-10T06:31:22;5.50;;;5.10;;
19521;SDS011;9905;52.126;5.596;2023-06-10T06:33:49;6.32;;;5.20;;
19521;SDS011;9905;52.126;5.596;2023-06-10T06:36:16;5.30;;;4.88;;
19521;SDS011;9905;52.126;5.596;2023-06-10T06:38:42;8.50;;;4.60;;
19521;SDS011;9905;52.126;5.596;2023-06-10T06:41:09;5.20;;;4.80;;
19521;SDS011;9905;52.126;5.596;2023-06-10T06:43:36;6.85;;;4.93;;
19521;SDS011;9905;52.126;5.596;2023-06-10T06:46:04;6.43;;;5.00;;
19521;SDS011;9905;52.126;5.596;2023-06-10T06:48:31;4.85;;;4.32;;
19521;SDS011;9905;52.126;5.596;2023-06-10T06:50:58;4.97;;;4.57;;
19521;SDS011;9905;52.126;5.596;2023-06-10T06:53:25;5.00;;;4.50;;
19521;SDS011;9905;52.126;5.596;2023-06-10T06:55:53;5.13;;;4.60;;
19521;SDS011;9905;52.126;5.596;2023-06-10T06:58:19;6.07;;;5.03;;
19521;SDS011;9905;52.126;5.596;2023-06-10T07:00:46;5.55;;;4.78;;
19521;SDS011;9905;52.126;5.596;2023-06-10T07:03:17;5.15;;;4.65;;
19521;SDS011;9905;52.126;5.596;2023-06-10T07:05:44;6.07;;;5.13;;
19521;SDS011;9905;52.126;5.596;2023-06-10T07:08:10;6.93;;;4.88;;
19521;SDS011;9905;52.126;5.596;2023-06-10T07:10:37;5.47;;;5.00;;
19521;SDS011;9905;52.126;5.596;2023-06-10T07:13:04;4.82;;;4.43;;
19521;SDS011;9905;52.126;5.596;2023-06-10T07:15:31;9.30;;;4.30;;
19521;SDS011;9905;52.126;5.596;2023-06-10T07:17:58;6.13;;;4.82;;
19521;SDS011;9905;52.126;5.596;2023-06-10T07:20:26;5.43;;;4.93;;
19521;SDS011;9905;52.126;5.596;2023-06-10T07:22:53;5.38;;;4.63;;
19521;SDS011;9905;52.126;5.596;2023-06-10T07:25:19;4.65;;;4.30;;
19521;SDS011;9905;52.126;5.596;2023-06-10T07:27:46;5.15;;;4.80;;
19521;SDS011;9905;52.126;5.596;2023-06-10T07:30:16;4.90;;;4.50;;
19521;SDS011;9905;52.126;5.596;2023-06-10T07:32:43;5.32;;;4.57;;
19521;SDS011;9905;52.126;5.596;2023-06-10T07:35:10;5.22;;;4.60;;
19521;SDS011;9905;52.126;5.596;2023-06-10T07:37:38;4.28;;;3.97;;
19521;SDS011;9905;52.126;5.596;2023-06-10T07:40:05;4.47;;;4.07;;
19521;SDS011;9905;52.126;5.596;2023-06-10T07:42:34;4.28;;;3.88;;
19521;SDS011;9905;52.126;5.596;2023-06-10T07:45:02;4.60;;;4.20;;
19521;SDS011;9905;52.126;5.596;2023-06-10T07:47:30;5.60;;;4.25;;
19521;SDS011;9905;52.126;5.596;2023-06-10T07:49:58;5.78;;;3.92;;
19521;SDS011;9905;52.126;5.596;2023-06-10T07:52:25;6.75;;;4.32;;
19521;SDS011;9905;52.126;5.596;2023-06-10T07:54:55;4.10;;;3.80;;
19521;SDS011;9905;52.126;5.596;2023-06-10T07:57:21;4.65;;;4.22;;
19521;SDS011;9905;52.126;5.596;2023-06-10T07:59:51;4.45;;;4.05;;
19521;SDS011;9905;52.126;5.596;2023-06-10T08:02:18;3.90;;;3.60;;
19521;SDS011;9905;52.126;5.596;2023-06-10T08:04:44;4.35;;;3.95;;
19521;SDS011;9905;52.126;5.596;2023-06-10T08:07:12;3.97;;;3.67;;
19521;SDS011;9905;52.126;5.596;2023-06-10T08:09:38;4.00;;;3.70;;
19521;SDS011;9905;52.126;5.596;2023-06-10T08:12:07;4.85;;;4.05;;
19521;SDS011;9905;52.126;5.596;2023-06-10T08:14:35;4.13;;;3.80;;
19521;SDS011;9905;52.126;5.596;2023-06-10T08:17:03;5.28;;;3.70;;
19521;SDS011;9905;52.126;5.596;2023-06-10T08:19:31;5.30;;;4.00;;
19521;SDS011;9905;52.126;5.596;2023-06-10T08:21:58;5.28;;;3.58;;
19521;SDS011;9905;52.126;5.596;2023-06-10T08:24:25;4.38;;;3.72;;
19521;SDS011;9905;52.126;5.596;2023-06-10T08:26:51;3.88;;;3.47;;
19521;SDS011;9905;52.126;5.596;2023-06-10T08:29:21;4.18;;;3.85;;
19521;SDS011;9905;52.126;5.596;2023-06-10T08:31:49;4.28;;;3.70;;
19521;SDS011;9905;52.126;5.596;2023-06-10T08:34:16;5.07;;;3.78;;
19521;SDS011;9905;52.126;5.596;2023-06-10T08:36:43;3.75;;;3.45;;
19521;SDS011;9905;52.126;5.596;2023-06-10T08:39:10;4.55;;;4.15;;
19521;SDS011;9905;52.126;5.596;2023-06-10T08:41:39;3.60;;;3.35;;
19521;SDS011;9905;52.126;5.596;2023-06-10T08:44:10;4.00;;;3.70;;
19521;SDS011;9905;52.126;5.596;2023-06-10T08:46:45;3.88;;;3.58;;
19521;SDS011;9905;52.126;5.596;2023-06-10T08:49:14;3.78;;;3.47;;
19521;SDS011;9905;52.126;5.596;2023-06-10T08:51:45;3.50;;;3.30;;
19521;SDS011;9905;52.126;5.596;2023-06-10T08:54:17;7.28;;;4.22;;
19521;SDS011;9905;52.126;5.596;2023-06-10T08:56:48;3.72;;;3.45;;
19521;SDS011;9905;52.126;5.596;2023-06-10T08:59:16;3.78;;;3.35;;
19521;SDS011;9905;52.126;5.596;2023-06-10T09:01:45;5.93;;;3.50;;
19521;SDS011;9905;52.126;5.596;2023-06-10T09:04:12;4.80;;;3.47;;
19521;SDS011;9905;52.126;5.596;2023-06-10T09:06:41;8.50;;;3.70;;
19521;SDS011;9905;52.126;5.596;2023-06-10T09:09:08;3.92;;;3.63;;
19521;SDS011;9905;52.126;5.596;2023-06-10T09:11:35;4.18;;;3.75;;
19521;SDS011;9905;52.126;5.596;2023-06-10T09:14:04;3.88;;;3.63;;
19521;SDS011;9905;52.126;5.596;2023-06-10T09:16:30;3.67;;;3.40;;
19521;SDS011;9905;52.126;5.596;2023-06-10T09:18:58;4.07;;;3.67;;
19521;SDS011;9905;52.126;5.596;2023-06-10T09:21:25;3.97;;;3.60;;
19521;SDS011;9905;52.126;5.596;2023-06-10T09:23:52;3.67;;;3.38;;
19521;SDS011;9905;52.126;5.596;2023-06-10T09:26:19;3.75;;;3.47;;
19521;SDS011;9905;52.126;5.596;2023-06-10T09:28:47;3.58;;;3.28;;
19521;SDS011;9905;52.126;5.596;2023-06-10T09:31:14;3.95;;;3.63;;
19521;SDS011;9905;52.126;5.596;2023-06-10T09:33:43;3.50;;;3.22;;
19521;SDS011;9905;52.126;5.596;2023-06-10T09:36:12;4.22;;;3.28;;
19521;SDS011;9905;52.126;5.596;2023-06-10T09:38:49;3.65;;;3.42;;
19521;SDS011;9905;52.126;5.596;2023-06-10T09:41:16;3.60;;;3.30;;
19521;SDS011;9905;52.126;5.596;2023-06-10T09:43:44;3.72;;;3.42;;
19521;SDS011;9905;52.126;5.596;2023-06-10T09:46:14;4.20;;;3.60;;
19521;SDS011;9905;52.126;5.596;2023-06-10T09:48:41;3.90;;;3.50;;
19521;SDS011;9905;52.126;5.596;2023-06-10T09:51:09;3.20;;;3.00;;
19521;SDS011;9905;52.126;5.596;2023-06-10T09:53:38;4.18;;;3.38;;
19521;SDS011;9905;52.126;5.596;2023-06-10T09:56:05;3.63;;;3.42;;
19521;SDS011;9905;52.126;5.596;2023-06-10T09:58:36;3.45;;;3.15;;
19521;SDS011;9905;52.126;5.596;2023-06-10T10:01:06;3.88;;;3.58;;
19521;SDS011;9905;52.126;5.596;2023-06-10T10:03:42;3.28;;;3.08;;
19521;SDS011;9905;52.126;5.596;2023-06-10T10:06:11;4.55;;;3.03;;
19521;SDS011;9905;52.126;5.596;2023-06-10T10:08:39;3.65;;;3.45;;
19521;SDS011;9905;52.126;5.596;2023-06-10T10:11:05;6.57;;;3.33;;
19521;SDS011;9905;52.126;5.596;2023-06-10T10:13:33;3.42;;;3.13;;
19521;SDS011;9905;52.126;5.596;2023-06-10T10:16:01;3.58;;;3.25;;
19521;SDS011;9905;52.126;5.596;2023-06-10T10:18:35;3.13;;;2.92;;
19521;SDS011;9905;52.126;5.596;2023-06-10T10:21:10;3.00;;;2.80;;
19521;SDS011;9905;52.126;5.596;2023-06-10T10:23:40;4.32;;;2.92;;
19521;SDS011;9905;52.126;5.596;2023-06-10T10:26:14;3.28;;;3.08;;
19521;SDS011;9905;52.126;5.596;2023-06-10T10:28:41;3.30;;;3.00;;
19521;SDS011;9905;52.126;5.596;2023-06-10T10:31:11;5.93;;;3.50;;
19521;SDS011;9905;52.126;5.596;2023-06-10T10:33:46;3.80;;;2.95;;
19521;SDS011;9905;52.126;5.596;2023-06-10T10:36:20;3.40;;;3.10;;
19521;SDS011;9905;52.126;5.596;2023-06-10T10:38:47;3.70;;;2.75;;
19521;SDS011;9905;52.126;5.596;2023-06-10T10:41:15;2.97;;;2.78;;
19521;SDS011;9905;52.126;5.596;2023-06-10T10:43:42;3.30;;;3.10;;
19521;SDS011;9905;52.126;5.596;2023-06-10T10:46:11;3.58;;;3.28;;
19521;SDS011;9905;52.126;5.596;2023-06-10T10:48:39;2.90;;;2.70;;
19521;SDS011;9905;52.126;5.596;2023-06-10T10:51:07;3.50;;;3.20;;
19521;SDS011;9905;52.126;5.596;2023-06-10T10:53:35;3.22;;;3.03;;
19521;SDS011;9905;52.126;5.596;2023-06-10T10:56:04;3.60;;;3.30;;
19521;SDS011;9905;52.126;5.596;2023-06-10T10:58:31;3.00;;;2.80;;
19521;SDS011;9905;52.126;5.596;2023-06-10T11:00:58;3.55;;;3.05;;
19521;SDS011;9905;52.126;5.596;2023-06-10T11:03:28;3.33;;;3.00;;
19521;SDS011;9905;52.126;5.596;2023-06-10T11:05:56;3.22;;;3.03;;
19521;SDS011;9905;52.126;5.596;2023-06-10T11:11:18;3.05;;;2.83;;
19521;SDS011;9905;52.126;5.596;2023-06-10T11:14:04;3.70;;;3.35;;
19521;SDS011;9905;52.126;5.596;2023-06-10T11:16:38;3.17;;;2.92;;
19521;SDS011;9905;52.126;5.596;2023-06-10T11:19:06;3.60;;;3.30;;
19521;SDS011;9905;52.126;5.596;2023-06-10T11:21:36;3.20;;;3.00;;
19521;SDS011;9905;52.126;5.596;2023-06-10T11:24:24;3.22;;;3.00;;
19521;SDS011;9905;52.126;5.596;2023-06-10T11:26:52;3.45;;;3.17;;
19521;SDS011;9905;52.126;5.596;2023-06-10T11:29:18;4.10;;;3.00;;
19521;SDS011;9905;52.126;5.596;2023-06-10T11:31:46;3.65;;;3.30;;
19521;SDS011;9905;52.126;5.596;2023-06-10T11:34:20;4.13;;;3.83;;
19521;SDS011;9905;52.126;5.596;2023-06-10T11:36:49;3.60;;;3.40;;
19521;SDS011;9905;52.126;5.596;2023-06-10T11:39:17;3.38;;;2.92;;
19521;SDS011;9905;52.126;5.596;2023-06-10T11:41:47;3.15;;;2.85;;
19521;SDS011;9905;52.126;5.596;2023-06-10T11:44:14;3.25;;;2.95;;
19521;SDS011;9905;52.126;5.596;2023-06-10T11:46:41;4.55;;;3.10;;
19521;SDS011;9905;52.126;5.596;2023-06-10T11:49:08;3.63;;;3.22;;
19521;SDS011;9905;52.126;5.596;2023-06-10T11:51:35;5.32;;;3.40;;
19521;SDS011;9905;52.126;5.596;2023-06-10T11:54:04;2.72;;;2.60;;
19521;SDS011;9905;52.126;5.596;2023-06-10T11:56:31;3.60;;;3.40;;
19521;SDS011;9905;52.126;5.596;2023-06-10T11:59:00;3.13;;;2.92;;
19521;SDS011;9905;52.126;5.596;2023-06-10T12:01:29;3.20;;;3.00;;
19521;SDS011;9905;52.126;5.596;2023-06-10T12:03:58;3.35;;;3.13;;
19521;SDS011;9905;52.126;5.596;2023-06-10T12:06:37;3.42;;;3.13;;
19521;SDS011;9905;52.126;5.596;2023-06-10T12:09:05;3.00;;;2.80;;
19521;SDS011;9905;52.126;5.596;2023-06-10T12:11:32;3.70;;;3.40;;
19521;SDS011;9905;52.126;5.596;2023-06-10T12:14:00;3.67;;;3.38;;
19521;SDS011;9905;52.126;5.596;2023-06-10T12:16:29;3.72;;;3.28;;
19521;SDS011;9905;52.126;5.596;2023-06-10T12:19:00;3.05;;;2.83;;
19521;SDS011;9905;52.126;5.596;2023-06-10T12:21:28;3.28;;;3.08;;
19521;SDS011;9905;52.126;5.596;2023-06-10T12:24:00;3.20;;;3.00;;
19521;SDS011;9905;52.126;5.596;2023-06-10T12:26:38;4.22;;;3.17;;
19521;SDS011;9905;52.126;5.596;2023-06-10T12:29:16;3.28;;;2.97;;
19521;SDS011;9905;52.126;5.596;2023-06-10T12:31:52;3.95;;;3.65;;
19521;SDS011;9905;52.126;5.596;2023-06-10T12:34:30;8.77;;;3.28;;
19521;SDS011;9905;52.126;5.596;2023-06-10T12:36:58;3.22;;;3.03;;
19521;SDS011;9905;52.126;5.596;2023-06-10T12:39:25;3.40;;;3.10;;
19521;SDS011;9905;52.126;5.596;2023-06-10T12:41:52;3.33;;;3.13;;
19521;SDS011;9905;52.126;5.596;2023-06-10T12:44:29;3.30;;;3.10;;
19521;SDS011;9905;52.126;5.596;2023-06-10T12:46:56;3.50;;;3.25;;
19521;SDS011;9905;52.126;5.596;2023-06-10T12:49:23;4.32;;;3.33;;
19521;SDS011;9905;52.126;5.596;2023-06-10T12:51:51;5.22;;;3.42;;
19521;SDS011;9905;52.126;5.596;2023-06-10T12:54:18;3.30;;;3.10;;
19521;SDS011;9905;52.126;5.596;2023-06-10T12:56:45;3.28;;;3.08;;
19521;SDS011;9905;52.126;5.596;2023-06-10T12:59:11;3.33;;;3.13;;
19521;SDS011;9905;52.126;5.596;2023-06-10T13:01:40;3.40;;;3.10;;
19521;SDS011;9905;52.126;5.596;2023-06-10T13:04:07;3.35;;;3.15;;
19521;SDS011;9905;52.126;5.596;2023-06-10T13:06:34;3.53;;;3.33;;
19521;SDS011;9905;52.126;5.596;2023-06-10T13:09:04;3.58;;;3.38;;
19521;SDS011;9905;52.126;5.596;2023-06-10T13:11:32;3.60;;;3.40;;
19521;SDS011;9905;52.126;5.596;2023-06-10T13:14:00;3.85;;;3.00;;
19521;SDS011;9905;52.126;5.596;2023-06-10T13:16:27;3.63;;;3.42;;
19521;SDS011;9905;52.126;5.596;2023-06-10T13:18:56;3.25;;;3.05;;
19521;SDS011;9905;52.126;5.596;2023-06-10T13:21:22;3.33;;;3.15;;
19521;SDS011;9905;52.126;5.596;2023-06-10T13:23:49;3.53;;;3.22;;
19521;SDS011;9905;52.126;5.596;2023-06-10T13:26:16;3.78;;;3.58;;
19521;SDS011;9905;52.126;5.596;2023-06-10T13:28:43;3.35;;;3.08;;
19521;SDS011;9905;52.126;5.596;2023-06-10T13:31:10;3.20;;;3.00;;
19521;SDS011;9905;52.126;5.596;2023-06-10T13:33:37;3.42;;;3.22;;
19521;SDS011;9905;52.126;5.596;2023-06-10T13:36:05;4.35;;;3.40;;
19521;SDS011;9905;52.126;5.596;2023-06-10T13:38:32;3.05;;;2.85;;
19521;SDS011;9905;52.126;5.596;2023-06-10T13:40:58;3.20;;;3.00;;
19521;SDS011;9905;52.126;5.596;2023-06-10T13:43:26;3.08;;;2.88;;
19521;SDS011;9905;52.126;5.596;2023-06-10T13:45:53;3.30;;;3.10;;
19521;SDS011;9905;52.126;5.596;2023-06-10T13:48:20;3.25;;;3.05;;
19521;SDS011;9905;52.126;5.596;2023-06-10T13:50:47;3.30;;;3.10;;
19521;SDS011;9905;52.126;5.596;2023-06-10T13:53:15;3.28;;;3.08;;
19521;SDS011;9905;52.126;5.596;2023-06-10T13:55:42;3.42;;;3.10;;
19521;SDS011;9905;52.126;5.596;2023-06-10T13:58:09;3.10;;;2.90;;
19521;SDS011;9905;52.126;5.596;2023-06-10T14:00:36;3.10;;;2.97;;
19521;SDS011;9905;52.126;5.596;2023-06-10T14:03:03;3.33;;;3.03;;
19521;SDS011;9905;52.126;5.596;2023-06-10T14:05:30;3.55;;;3.25;;
19521;SDS011;9905;52.126;5.596;2023-06-10T14:07:57;3.45;;;3.10;;
19521;SDS011;9905;52.126;5.596;2023-06-10T14:10:25;4.30;;;2.80;;
19521;SDS011;9905;52.126;5.596;2023-06-10T14:12:52;3.20;;;3.00;;
19521;SDS011;9905;52.126;5.596;2023-06-10T14:15:19;3.05;;;2.85;;
19521;SDS011;9905;52.126;5.596;2023-06-10T14:17:46;3.40;;;3.10;;
19521;SDS011;9905;52.126;5.596;2023-06-10T14:20:13;4.05;;;3.53;;
19521;SDS011;9905;52.126;5.596;2023-06-10T14:22:40;2.92;;;2.72;;
19521;SDS011;9905;52.126;5.596;2023-06-10T14:25:07;3.28;;;2.72;;
19521;SDS011;9905;52.126;5.596;2023-06-10T14:27:37;3.13;;;2.92;;
19521;SDS011;9905;52.126;5.596;2023-06-10T14:30:04;2.97;;;2.60;;
19521;SDS011;9905;52.126;5.596;2023-06-10T14:32:32;2.83;;;2.72;;
19521;SDS011;9905;52.126;5.596;2023-06-10T14:34:58;3.20;;;3.00;;
19521;SDS011;9905;52.126;5.596;2023-06-10T14:37:25;3.08;;;2.88;;
19521;SDS011;9905;52.126;5.596;2023-06-10T14:39:52;3.22;;;2.88;;
19521;SDS011;9905;52.126;5.596;2023-06-10T14:42:19;3.20;;;3.00;;
19521;SDS011;9905;52.126;5.596;2023-06-10T14:44:47;3.15;;;2.85;;
19521;SDS011;9905;52.126;5.596;2023-06-10T14:47:14;2.50;;;2.40;;
19521;SDS011;9905;52.126;5.596;2023-06-10T14:49:41;3.05;;;2.85;;
19521;SDS011;9905;52.126;5.596;2023-06-10T14:52:08;3.00;;;2.80;;
19521;SDS011;9905;52.126;5.596;2023-06-10T14:54:35;16.45;;;14.77;;
19521;SDS011;9905;52.126;5.596;2023-06-10T14:57:04;7.18;;;6.68;;
19521;SDS011;9905;52.126;5.596;2023-06-10T14:59:32;3.55;;;3.25;;
19521;SDS011;9905;52.126;5.596;2023-06-10T15:02:00;3.08;;;2.88;;
19521;SDS011;9905;52.126;5.596;2023-06-10T15:04:27;3.08;;;2.88;;
19521;SDS011;9905;52.126;5.596;2023-06-10T15:06:54;2.70;;;2.50;;